»·PEaware :: AUA258 EDDF-LOWG

AUA258 :: EDDF-LOWG

FLIGHT INFORMATION

Flight Status: Arrived
Operator:
Austrian Airlines
More flights by this operator :: More flights under this callsign
Pilot: Hunter B. (17602)
Aircraft: AIRBUS A320
(A320)
More flights by this aircraft type
Origin: EDDF Frankfurt/Main
Germany
Destination: LOWG Graz
Austria
More flights between these airports :: More routes between these airports
Route: NOMB1A NOMBO Y161 RIDAR UZ98 MIQ UL605 ESEGA VELOM LEOBE LEOB1M
File this flight plan on PilotEdge
Remarks: PBN / A1B1C1D1O1S1 DOF / 171219 REG / N320SB EET / EDUU0011 LOVV0033 OPR / AUA PER / C RMK / TCAS SIMBRIEF
Altitude:
(Current/Filed)
35,000ft
Speed:
(Current/Filed)
446kts
Departed: 19-Dec-17 02:35 PM
Arrived: 19-Dec-17 03:46 PM
Distance/Time
Traveled:
328nm/1:11
Distance/Time
To Go:
Arrived

Flight Plot

Page will automatically refresh every two minutes.

Flight plan parsing failed; only flown route is shown


Map Options




Map Legend


Flown Route
Filed Route
Departure Airport
Arrival Airport
Navaid (VOR, NDB)
Fix

Horizontal Profiles

Position Reports

Time Latitude Longitude Heading Altitude Ground
Speed
19-Dec-17 14:15 50.044823 8.565380 164 367ft 0kts
19-Dec-17 14:16 50.044823 8.565380 164 367ft 0kts
19-Dec-17 14:17 50.044823 8.565380 164 367ft 0kts
19-Dec-17 14:18 50.044823 8.565380 164 367ft 0kts
19-Dec-17 14:19 50.044823 8.565380 164 367ft 0kts
19-Dec-17 14:20 50.044823 8.565380 164 367ft 0kts
19-Dec-17 14:21 50.044823 8.565380 164 367ft 0kts
19-Dec-17 14:22 50.044823 8.565380 164 367ft 0kts
19-Dec-17 14:23 50.044823 8.565380 164 367ft 0kts
19-Dec-17 14:24 50.044823 8.565380 164 367ft 0kts
19-Dec-17 14:25 50.044823 8.565380 164 367ft 0kts
19-Dec-17 14:26 50.044823 8.565380 164 367ft 0kts
19-Dec-17 14:27 50.044823 8.565380 164 367ft 0kts
19-Dec-17 14:28 50.045058 8.565264 163 367ft 2kts
19-Dec-17 14:29 50.045537 8.565029 163 367ft 2kts
19-Dec-17 14:30 50.046057 8.564876 187 367ft 2kts
19-Dec-17 14:31 50.046512 8.565139 205 367ft 0kts
19-Dec-17 14:32 50.046512 8.565139 205 367ft 0kts
19-Dec-17 14:33 50.046092 8.564832 205 367ft 7kts
19-Dec-17 14:34 50.044281 8.560523 224 362ft 17kts
19-Dec-17 14:35 50.041772 8.556823 250 354ft 23kts
19-Dec-17 14:36 50.039618 8.547829 250 345ft 32kts
19-Dec-17 14:37 50.036733 8.537030 248 347ft 26kts
19-Dec-17 14:38 50.034447 8.527818 248 340ft 16kts
19-Dec-17 14:39 50.034311 8.527258 250 339ft 0kts
19-Dec-17 14:40 50.033591 8.525937 181 338ft 0kts
19-Dec-17 14:41 50.023731 8.526017 181 334ft 155kts
19-Dec-17 14:42 49.969181 8.528818 179 3437ft 231kts
19-Dec-17 14:43 49.906758 8.533133 180 7774ft 237kts
19-Dec-17 14:44 49.849948 8.536860 179 9836ft 281kts
19-Dec-17 14:45 49.791965 8.552269 131 12158ft 287kts
19-Dec-17 14:46 49.777948 8.632602 84 13555ft 300kts
19-Dec-17 14:47 49.774855 8.739187 86 14830ft 343kts
19-Dec-17 14:48 49.770684 8.859036 86 16931ft 353kts
19-Dec-17 14:49 49.766132 8.984240 86 18903ft 362kts
19-Dec-17 14:50 49.757831 9.119033 96 20826ft 378kts
19-Dec-17 14:51 49.714714 9.245412 123 22482ft 414kts
19-Dec-17 14:52 49.648202 9.362201 123 24046ft 423kts
19-Dec-17 14:53 49.569995 9.459372 142 25412ft 449kts
19-Dec-17 14:54 49.479189 9.541828 142 26680ft 457kts
19-Dec-17 14:55 49.384807 9.627545 141 27881ft 466kts
19-Dec-17 14:56 49.305803 9.720239 126 28878ft 458kts
19-Dec-17 14:57 49.236291 9.826529 126 29864ft 464kts
19-Dec-17 14:58 49.164972 9.934896 126 30766ft 471kts
19-Dec-17 14:59 49.089667 10.048538 126 31694ft 475kts
19-Dec-17 15:00 49.010631 10.162929 127 32753ft 478kts
19-Dec-17 15:01 48.926709 10.281618 126 33680ft 481kts
19-Dec-17 15:02 48.848598 10.391654 126 34547ft 480kts
19-Dec-17 15:03 48.777484 10.501878 122 35119ft 471kts
19-Dec-17 15:04 48.711832 10.606775 122 35412ft 470kts
19-Dec-17 15:05 48.654124 10.698635 122 35602ft 472kts
19-Dec-17 15:06 48.599769 10.810974 100 35610ft 438kts
19-Dec-17 15:07 48.584432 10.949507 80 35624ft 404kts
19-Dec-17 15:08 48.580478 11.092201 79 35632ft 398kts
19-Dec-17 15:09 48.577443 11.233860 78 35583ft 393kts
19-Dec-17 15:10 48.574686 11.381482 78 35544ft 392kts
19-Dec-17 15:11 48.571682 11.529278 78 35540ft 393kts
19-Dec-17 15:12 48.559599 11.671182 89 35567ft 412kts
19-Dec-17 15:13 48.540927 11.798597 89 35577ft 414kts
19-Dec-17 15:14 48.520257 11.938786 89 35604ft 415kts
19-Dec-17 15:15 48.499433 12.078794 89 35618ft 416kts
19-Dec-17 15:16 48.475658 12.237142 89 35601ft 415kts
19-Dec-17 15:17 48.450612 12.402264 89 35590ft 415kts
19-Dec-17 15:18 48.426114 12.562152 89 35583ft 415kts
19-Dec-17 15:19 48.403875 12.705924 90 35602ft 416kts
19-Dec-17 15:20 48.369895 12.867202 95 35618ft 427kts
19-Dec-17 15:21 48.332317 13.028510 96 35612ft 427kts
19-Dec-17 15:22 48.293839 13.192563 98 35565ft 432kts
19-Dec-17 15:23 48.256839 13.349205 98 35594ft 437kts
19-Dec-17 15:24 48.219743 13.494691 107 35642ft 453kts
19-Dec-17 15:25 48.151128 13.627530 118 35644ft 470kts
19-Dec-17 15:26 48.081734 13.753643 119 35610ft 470kts
19-Dec-17 15:27 48.007886 13.887423 119 35174ft 473kts
19-Dec-17 15:28 47.934715 14.019096 119 32494ft 455kts
19-Dec-17 15:29 47.866908 14.140816 119 30724ft 439kts
19-Dec-17 15:30 47.802098 14.256606 120 29003ft 432kts
19-Dec-17 15:31 47.736264 14.373698 121 27208ft 426kts
19-Dec-17 15:32 47.668636 14.493447 121 25316ft 420kts
19-Dec-17 15:33 47.600617 14.613350 122 23366ft 414kts
19-Dec-17 15:34 47.538534 14.722330 124 21542ft 409kts
19-Dec-17 15:35 47.478336 14.827579 125 19736ft 404kts
19-Dec-17 15:36 47.417194 14.934062 126 17886ft 397kts
19-Dec-17 15:37 47.358587 15.042910 112 16003ft 382kts
19-Dec-17 15:38 47.318202 15.168180 111 14210ft 367kts
19-Dec-17 15:39 47.251092 15.243417 168 12237ft 352kts
19-Dec-17 15:40 47.164064 15.267224 168 10782ft 314kts
19-Dec-17 15:41 47.089722 15.287791 168 9896ft 292kts
19-Dec-17 15:42 47.013812 15.308758 168 8609ft 287kts
19-Dec-17 15:43 46.942132 15.328507 168 8134ft 254kts
19-Dec-17 15:44 46.877418 15.348039 165 7382ft 242kts
19-Dec-17 15:45 46.814751 15.369473 165 6203ft 232kts
19-Dec-17 15:46 46.794868 15.426575 56 5099ft 182kts
19-Dec-17 15:47 46.823853 15.481238 11 3867ft 181kts
19-Dec-17 15:48 46.863411 15.474754 349 3369ft 179kts
19-Dec-17 15:49 46.911686 15.461474 349 2376ft 135kts
19-Dec-17 15:50 46.945879 15.452053 349 1791ft 132kts
19-Dec-17 15:51 46.979028 15.442883 349 1119ft 127kts
19-Dec-17 15:52 46.992568 15.439656 43 1102ft 16kts
19-Dec-17 15:53 46.994991 15.443558 144 1105ft 4kts
19-Dec-17 15:54 46.994857 15.443635 166 1105ft 0kts
19-Dec-17 15:55 46.994857 15.443635 166 1105ft 0kts
19-Dec-17 15:56 46.994857 15.443635 166 1105ft 0kts

Navigation Log

Ident Type
Flight plan parsing failed, navigation log unavailable